PWSweather.com
Personal Weather Stations
Station Observations
VPOKROGLO
Kal Nad Kanalom, PrimorskaSI

Kal Nad KanalomPrimorskaSI

Lat: 46.072, Lon: 13.734

Elevation: 2526

Station Type: WS-2355

http://www.okroglovreme.com

High Low Average
Temperature 52.3°F11.3°C 48.6°F9.2°C 49.5°F9.7°C
Dew Point 46.0°F7.8°C 42.6°F5.9°C 44.1°F6.7°C
Winds 1.2 mph 1.9 kmh Calm Calm Calm ECalm E
Wind Gusts 8.1 mph13.0 kmh -- 2.0 mph3.2 kmh
Humidity 84% 79% 82%
Pressure 30.11 in1019.6 mb 30.08 in1018.6 mb -
Precipitation 0.00 in0.0 mm - -
Hour Temp Dew Point Humidity Winds Wind Gusts Pressure Precip Precip Rate Daily Precip Total
12:00 AM 48.7°F9.3°C 44.1°F6.7°C 84% Calm Calm -- 30.10 in1019.3 mb 0.00 in0.0 mm 0.00 in/hr0.0 mm/hr 0.00 in0.0 mm
12:15 AM 48.6°F9.2°C 43.9°F6.6°C 84% 0.2 mph SE0.3 kmh SE 1.6 mph2.6 kmh 30.10 in1019.3 mb 0.00 in0.0 mm 0.00 in/hr0.0 mm/hr 0.00 in0.0 mm
12:30 AM 48.6°F9.2°C 43.6°F6.4°C 83% Calm Calm 1.1 mph1.8 kmh 30.10 in1019.3 mb 0.00 in0.0 mm 0.00 in/hr0.0 mm/hr 0.00 in0.0 mm
12:45 AM 48.7°F9.3°C 43.8°F6.6°C 83% Calm Calm 0.9 mph1.4 kmh 30.11 in1019.6 mb 0.00 in0.0 mm 0.00 in/hr0.0 mm/hr 0.00 in0.0 mm
01:00 AM 48.6°F9.2°C 43.6°F6.4°C 83% Calm Calm -- 30.11 in1019.6 mb 0.00 in0.0 mm 0.00 in/hr0.0 mm/hr 0.00 in0.0 mm
01:15 AM 48.7°F9.3°C 43.4°F6.3°C 82% Calm Calm -- 30.11 in1019.6 mb 0.00 in0.0 mm 0.00 in/hr0.0 mm/hr 0.00 in0.0 mm
01:30 AM 48.9°F9.4°C 43.3°F6.3°C 81% Calm Calm -- 30.11 in1019.6 mb 0.00 in0.0 mm 0.00 in/hr0.0 mm/hr 0.00 in0.0 mm
01:45 AM 48.7°F9.3°C 43.1°F6.2°C 81% 0.4 mph SE0.6 kmh SE 2.2 mph3.5 kmh 30.11 in1019.6 mb 0.00 in0.0 mm 0.00 in/hr0.0 mm/hr 0.00 in0.0 mm
02:00 AM 48.9°F9.4°C 43.3°F6.3°C 81% Calm Calm 0.7 mph1.1 kmh 30.11 in1019.6 mb 0.00 in0.0 mm 0.00 in/hr0.0 mm/hr 0.00 in0.0 mm
02:15 AM 48.7°F9.3°C 43.1°F6.2°C 81% Calm Calm -- 30.10 in1019.3 mb 0.00 in0.0 mm 0.00 in/hr0.0 mm/hr 0.00 in0.0 mm
02:30 AM 48.6°F9.2°C 42.6°F5.9°C 80% Calm Calm -- 30.11 in1019.6 mb 0.00 in0.0 mm 0.00 in/hr0.0 mm/hr 0.00 in0.0 mm
02:45 AM 49.1°F9.5°C 43.2°F6.2°C 80% Calm Calm 0.9 mph1.4 kmh 30.11 in1019.6 mb 0.00 in0.0 mm 0.00 in/hr0.0 mm/hr 0.00 in0.0 mm
03:00 AM 49.3°F9.6°C 43.3°F6.3°C 80% Calm Calm -- 30.10 in1019.3 mb 0.00 in0.0 mm 0.00 in/hr0.0 mm/hr 0.00 in0.0 mm
03:15 AM 48.9°F9.4°C 43.0°F6.1°C 80% Calm Calm -- 30.10 in1019.3 mb 0.00 in0.0 mm 0.00 in/hr0.0 mm/hr 0.00 in0.0 mm
03:30 AM 48.7°F9.3°C 43.1°F6.2°C 81% Calm Calm -- 30.09 in1019.0 mb 0.00 in0.0 mm 0.00 in/hr0.0 mm/hr 0.00 in0.0 mm
03:45 AM 48.9°F9.4°C 43.9°F6.6°C 83% Calm Calm -- 30.09 in1019.0 mb 0.00 in0.0 mm 0.00 in/hr0.0 mm/hr 0.00 in0.0 mm
04:00 AM 48.9°F9.4°C 44.2°F6.8°C 84% Calm Calm 0.9 mph1.4 kmh 30.09 in1019.0 mb 0.00 in0.0 mm 0.00 in/hr0.0 mm/hr 0.00 in0.0 mm
04:15 AM 48.9°F9.4°C 44.2°F6.8°C 84% 0.3 mph N0.5 kmh N 2.0 mph3.2 kmh 30.09 in1019.0 mb 0.00 in0.0 mm 0.00 in/hr0.0 mm/hr 0.00 in0.0 mm
04:30 AM 49.1°F9.5°C 44.4°F6.9°C 84% 0.4 mph S0.6 kmh S 3.6 mph5.8 kmh 30.09 in1019.0 mb 0.00 in0.0 mm 0.00 in/hr0.0 mm/hr 0.00 in0.0 mm
04:45 AM 49.8°F9.9°C 44.8°F7.1°C 83% 0.3 mph WNW0.5 kmh WNW 2.9 mph4.7 kmh 30.09 in1019.0 mb 0.00 in0.0 mm 0.00 in/hr0.0 mm/hr 0.00 in0.0 mm
05:00 AM 50.4°F10.2°C 45.0°F7.2°C 82% 0.7 mph SE1.1 kmh SE 5.6 mph9.0 kmh 30.09 in1019.0 mb 0.00 in0.0 mm 0.00 in/hr0.0 mm/hr 0.00 in0.0 mm
05:15 AM 50.5°F10.3°C 45.2°F7.3°C 82% 0.2 mph S0.3 kmh S 3.1 mph5.0 kmh 30.08 in1018.6 mb 0.00 in0.0 mm 0.00 in/hr0.0 mm/hr 0.00 in0.0 mm
05:30 AM 50.9°F10.5°C 45.3°F7.4°C 81% 0.9 mph SSE1.4 kmh SSE 4.9 mph7.9 kmh 30.08 in1018.6 mb 0.00 in0.0 mm 0.00 in/hr0.0 mm/hr 0.00 in0.0 mm
05:45 AM 51.3°F10.7°C 45.6°F7.6°C 81% 0.8 mph SSE1.3 kmh SSE 4.7 mph7.6 kmh 30.09 in1019.0 mb 0.00 in0.0 mm 0.00 in/hr0.0 mm/hr 0.00 in0.0 mm
06:00 AM 51.6°F10.9°C 45.7°F7.6°C 80% 1.2 mph SSE1.9 kmh SSE 8.1 mph13.0 kmh 30.09 in1019.0 mb 0.00 in0.0 mm 0.00 in/hr0.0 mm/hr 0.00 in0.0 mm
06:15 AM 52.0°F11.1°C 45.7°F7.6°C 79% 0.4 mph S0.6 kmh S 4.3 mph6.9 kmh 30.10 in1019.3 mb 0.00 in0.0 mm 0.00 in/hr0.0 mm/hr 0.00 in0.0 mm
06:30 AM 52.3°F11.3°C 46.0°F7.8°C 79% 0.8 mph SSE1.3 kmh SSE 5.4 mph8.7 kmh 30.09 in1019.0 mb 0.00 in0.0 mm 0.00 in/hr0.0 mm/hr 0.00 in0.0 mm
06:45 AM 52.7°F11.5°C 46.1°F7.8°C 78% 1.0 mph SSE1.6 kmh SSE 5.8 mph9.3 kmh 30.09 in1019.0 mb 0.00 in0.0 mm 0.00 in/hr0.0 mm/hr 0.00 in0.0 mm
07:00 AM 52.9°F11.6°C 46.2°F7.9°C 78% 1.1 mph SSE1.8 kmh SSE 5.6 mph9.0 kmh 30.09 in1019.0 mb 0.00 in0.0 mm 0.00 in/hr0.0 mm/hr 0.00 in0.0 mm
07:15 AM 53.1°F11.7°C 46.4°F8.0°C 78% 0.8 mph WSW1.3 kmh WSW 4.7 mph7.6 kmh 30.10 in1019.3 mb 0.00 in0.0 mm 0.00 in/hr0.0 mm/hr 0.00 in0.0 mm
07:30 AM 53.4°F11.9°C 46.8°F8.2°C 78% 1.9 mph ESE3.1 kmh ESE 8.1 mph13.0 kmh 30.10 in1019.3 mb 0.00 in0.0 mm 0.00 in/hr0.0 mm/hr 0.00 in0.0 mm
07:45 AM 54.0°F12.2°C 46.9°F8.3°C 77% 1.3 mph E2.1 kmh E 6.9 mph11.1 kmh 30.10 in1019.3 mb 0.00 in0.0 mm 0.00 in/hr0.0 mm/hr 0.00 in0.0 mm
08:00 AM 54.7°F12.6°C 47.2°F8.4°C 76% 1.4 mph NE2.3 kmh NE 8.1 mph13.0 kmh 30.10 in1019.3 mb 0.00 in0.0 mm 0.00 in/hr0.0 mm/hr 0.00 in0.0 mm
08:15 AM 55.2°F12.9°C 47.4°F8.6°C 75% 1.3 mph ENE2.1 kmh ENE 5.6 mph9.0 kmh 30.11 in1019.6 mb 0.00 in0.0 mm 0.00 in/hr0.0 mm/hr 0.00 in0.0 mm
08:30 AM 55.9°F13.3°C 47.7°F8.7°C 74% 1.8 mph N2.9 kmh N 6.7 mph10.8 kmh 30.11 in1019.6 mb 0.00 in0.0 mm 0.00 in/hr0.0 mm/hr 0.00 in0.0 mm
08:45 AM 56.8°F13.8°C 48.2°F9.0°C 73% 2.4 mph N3.9 kmh N 8.5 mph13.7 kmh 30.12 in1020.0 mb 0.00 in0.0 mm 0.00 in/hr0.0 mm/hr 0.00 in0.0 mm
09:00 AM 57.4°F14.1°C 48.0°F8.9°C 71% 2.3 mph N3.7 kmh N 7.2 mph11.6 kmh 30.12 in1020.0 mb 0.00 in0.0 mm 0.00 in/hr0.0 mm/hr 0.00 in0.0 mm
09:15 AM 57.9°F14.4°C 48.2°F9.0°C 70% 2.5 mph N4.0 kmh N 6.5 mph10.5 kmh 30.12 in1020.0 mb 0.00 in0.0 mm 0.00 in/hr0.0 mm/hr 0.00 in0.0 mm
09:30 AM 58.6°F14.8°C 48.5°F9.2°C 69% 2.3 mph NNE3.7 kmh NNE 8.5 mph13.7 kmh 30.13 in1020.3 mb 0.00 in0.0 mm 0.00 in/hr0.0 mm/hr 0.00 in0.0 mm
09:45 AM 59.0°F15.0°C 48.5°F9.2°C 68% 1.7 mph N2.7 kmh N 7.8 mph12.6 kmh 30.13 in1020.3 mb 0.00 in0.0 mm 0.00 in/hr0.0 mm/hr 0.00 in0.0 mm
10:00 AM 59.4°F15.2°C 48.4°F9.1°C 67% 2.1 mph NNE3.4 kmh NNE 10.3 mph16.6 kmh 30.13 in1020.3 mb 0.00 in0.0 mm 0.00 in/hr0.0 mm/hr 0.00 in0.0 mm
10:15 AM 59.9°F15.5°C 48.9°F9.4°C 67% 2.1 mph ENE3.4 kmh ENE 10.7 mph17.2 kmh 30.13 in1020.3 mb 0.00 in0.0 mm 0.00 in/hr0.0 mm/hr 0.00 in0.0 mm
10:30 AM 60.1°F15.6°C 48.7°F9.3°C 66% 3.3 mph NNE5.3 kmh NNE 9.6 mph15.4 kmh 30.13 in1020.3 mb 0.00 in0.0 mm 0.00 in/hr0.0 mm/hr 0.00 in0.0 mm
10:45 AM 60.1°F15.6°C 48.3°F9.1°C 65% 2.4 mph NE3.9 kmh NE 11.2 mph18.0 kmh 30.13 in1020.3 mb 0.00 in0.0 mm 0.00 in/hr0.0 mm/hr 0.00 in0.0 mm
11:00 AM 60.4°F15.8°C 48.7°F9.3°C 65% 3.0 mph NNE4.8 kmh NNE 9.4 mph15.1 kmh 30.13 in1020.3 mb 0.00 in0.0 mm 0.00 in/hr0.0 mm/hr 0.00 in0.0 mm
11:15 AM 60.6°F15.9°C 48.8°F9.3°C 65% 2.3 mph NE3.7 kmh NE 10.1 mph16.3 kmh 30.13 in1020.3 mb 0.00 in0.0 mm 0.00 in/hr0.0 mm/hr 0.00 in0.0 mm
11:30 AM 60.6°F15.9°C 48.4°F9.1°C 64% 2.8 mph NNE4.5 kmh NNE 8.3 mph13.4 kmh 30.12 in1020.0 mb 0.00 in0.0 mm 0.00 in/hr0.0 mm/hr 0.00 in0.0 mm
11:45 AM 61.3°F16.3°C 48.7°F9.3°C 63% 1.9 mph NE3.1 kmh NE 10.5 mph16.9 kmh 30.12 in1020.0 mb 0.00 in0.0 mm 0.00 in/hr0.0 mm/hr 0.00 in0.0 mm
12:00 PM 61.5°F16.4°C 48.8°F9.3°C 63% 1.6 mph SE2.6 kmh SE 6.3 mph10.1 kmh 30.12 in1020.0 mb 0.00 in0.0 mm 0.00 in/hr0.0 mm/hr 0.00 in0.0 mm
12:15 PM 61.9°F16.6°C 48.7°F9.3°C 62% 2.8 mph NNE4.5 kmh NNE 11.6 mph18.7 kmh 30.12 in1020.0 mb 0.00 in0.0 mm 0.00 in/hr0.0 mm/hr 0.00 in0.0 mm
12:30 PM 61.9°F16.6°C 48.7°F9.3°C 62% 2.9 mph N4.7 kmh N 8.9 mph14.3 kmh 30.12 in1020.0 mb 0.00 in0.0 mm 0.00 in/hr0.0 mm/hr 0.00 in0.0 mm
12:45 PM 61.9°F16.6°C 48.7°F9.3°C 62% 3.4 mph N5.5 kmh N 8.9 mph14.3 kmh 30.12 in1020.0 mb 0.00 in0.0 mm 0.00 in/hr0.0 mm/hr 0.00 in0.0 mm
01:00 PM 61.7°F16.5°C 48.6°F9.2°C 62% 3.2 mph N5.1 kmh N 11.9 mph19.2 kmh 30.11 in1019.6 mb 0.00 in0.0 mm 0.00 in/hr0.0 mm/hr 0.00 in0.0 mm
01:15 PM 61.9°F16.6°C 48.7°F9.3°C 62% 2.4 mph N3.9 kmh N 6.5 mph10.5 kmh 30.11 in1019.6 mb 0.00 in0.0 mm 0.00 in/hr0.0 mm/hr 0.00 in0.0 mm
01:30 PM 61.9°F16.6°C 48.7°F9.3°C 62% 2.7 mph NE4.3 kmh NE 10.3 mph16.6 kmh 30.11 in1019.6 mb 0.00 in0.0 mm 0.00 in/hr0.0 mm/hr 0.00 in0.0 mm
01:45 PM 62.4°F16.9°C 48.8°F9.3°C 61% 2.8 mph NNE4.5 kmh NNE 9.8 mph15.8 kmh 30.10 in1019.3 mb 0.00 in0.0 mm 0.00 in/hr0.0 mm/hr 0.00 in0.0 mm
02:00 PM 62.4°F16.9°C 48.4°F9.1°C 60% 3.5 mph N5.6 kmh N 10.1 mph16.3 kmh 30.10 in1019.3 mb 0.00 in0.0 mm 0.00 in/hr0.0 mm/hr 0.00 in0.0 mm
02:15 PM 62.6°F17.0°C 49.4°F9.7°C 62% 2.7 mph N4.3 kmh N 10.5 mph16.9 kmh 30.10 in1019.3 mb 0.00 in0.0 mm 0.00 in/hr0.0 mm/hr 0.00 in0.0 mm
02:30 PM 62.8°F17.1°C 48.7°F9.3°C 60% 2.6 mph N4.2 kmh N 7.4 mph11.9 kmh 30.09 in1019.0 mb 0.00 in0.0 mm 0.00 in/hr0.0 mm/hr 0.00 in0.0 mm
02:45 PM 63.0°F17.2°C 48.4°F9.1°C 59% 1.8 mph NNE2.9 kmh NNE 7.8 mph12.6 kmh 30.09 in1019.0 mb 0.00 in0.0 mm 0.00 in/hr0.0 mm/hr 0.00 in0.0 mm
03:00 PM 62.2°F16.8°C 47.8°F8.8°C 59% 2.6 mph N4.2 kmh N 8.3 mph13.4 kmh 30.09 in1019.0 mb 0.00 in0.0 mm 0.00 in/hr0.0 mm/hr 0.00 in0.0 mm
03:15 PM 62.2°F16.8°C 47.8°F8.8°C 59% 1.9 mph NNE3.1 kmh NNE 6.3 mph10.1 kmh 30.08 in1018.6 mb 0.00 in0.0 mm 0.00 in/hr0.0 mm/hr 0.00 in0.0 mm
03:30 PM 62.4°F16.9°C 48.4°F9.1°C 60% 1.2 mph NNE1.9 kmh NNE 5.8 mph9.3 kmh 30.08 in1018.6 mb 0.00 in0.0 mm 0.00 in/hr0.0 mm/hr 0.00 in0.0 mm
03:45 PM 62.2°F16.8°C 47.8°F8.8°C 59% 1.7 mph NNE2.7 kmh NNE 5.6 mph9.0 kmh 30.08 in1018.6 mb 0.00 in0.0 mm 0.00 in/hr0.0 mm/hr 0.00 in0.0 mm
04:00 PM 61.7°F16.5°C 47.3°F8.5°C 59% 1.6 mph N2.6 kmh N 7.4 mph11.9 kmh 30.07 in1018.3 mb 0.00 in0.0 mm 0.00 in/hr0.0 mm/hr 0.00 in0.0 mm
04:15 PM 61.3°F16.3°C 46.9°F8.3°C 59% 2.4 mph N3.9 kmh N 8.5 mph13.7 kmh 30.07 in1018.3 mb 0.00 in0.0 mm 0.00 in/hr0.0 mm/hr 0.00 in0.0 mm
04:30 PM 61.0°F16.1°C 46.1°F7.8°C 58% 1.3 mph NNE2.1 kmh NNE 5.4 mph8.7 kmh 30.07 in1018.3 mb 0.00 in0.0 mm 0.00 in/hr0.0 mm/hr 0.00 in0.0 mm
04:45 PM 60.6°F15.9°C 46.3°F7.9°C 59% 1.5 mph NNE2.4 kmh NNE 6.0 mph9.7 kmh 30.07 in1018.3 mb 0.00 in0.0 mm 0.00 in/hr0.0 mm/hr 0.00 in0.0 mm
05:00 PM 60.4°F15.8°C 46.6°F8.1°C 60% 1.7 mph N2.7 kmh N 5.8 mph9.3 kmh 30.07 in1018.3 mb 0.00 in0.0 mm 0.00 in/hr0.0 mm/hr 0.00 in0.0 mm
05:15 PM 60.1°F15.6°C 46.2°F7.9°C 60% 1.1 mph NE1.8 kmh NE 4.7 mph7.6 kmh 30.08 in1018.6 mb 0.00 in0.0 mm 0.00 in/hr0.0 mm/hr 0.00 in0.0 mm
05:30 PM 60.4°F15.8°C 47.0°F8.3°C 61% 1.2 mph E1.9 kmh E 6.0 mph9.7 kmh 30.07 in1018.3 mb 0.00 in0.0 mm 0.00 in/hr0.0 mm/hr 0.00 in0.0 mm
05:45 PM 60.1°F15.6°C 46.6°F8.1°C 61% 0.3 mph N0.5 kmh N 2.5 mph4.0 kmh 30.07 in1018.3 mb 0.00 in0.0 mm 0.00 in/hr0.0 mm/hr 0.00 in0.0 mm
06:00 PM 59.7°F15.4°C 47.1°F8.4°C 63% 0.2 mph SE0.3 kmh SE 4.5 mph7.2 kmh 30.07 in1018.3 mb 0.00 in0.0 mm 0.00 in/hr0.0 mm/hr 0.00 in0.0 mm
06:15 PM 59.2°F15.1°C 46.6°F8.1°C 63% 0.3 mph NNE0.5 kmh NNE 2.5 mph4.0 kmh 30.08 in1018.6 mb 0.00 in0.0 mm 0.00 in/hr0.0 mm/hr 0.00 in0.0 mm
06:30 PM 58.8°F14.9°C 46.2°F7.9°C 63% 1.2 mph N1.9 kmh N 7.4 mph11.9 kmh 30.08 in1018.6 mb 0.00 in0.0 mm 0.00 in/hr0.0 mm/hr 0.00 in0.0 mm
06:45 PM 58.5°F14.7°C 46.3°F7.9°C 64% 0.4 mph NE0.6 kmh NE 4.0 mph6.4 kmh 30.08 in1018.6 mb 0.00 in0.0 mm 0.00 in/hr0.0 mm/hr 0.00 in0.0 mm
07:00 PM 57.9°F14.4°C 46.2°F7.9°C 65% 0.3 mph N0.5 kmh N 3.4 mph5.5 kmh 30.08 in1018.6 mb 0.00 in0.0 mm 0.00 in/hr0.0 mm/hr 0.00 in0.0 mm
07:15 PM 57.4°F14.1°C 46.1°F7.8°C 66% 0.5 mph N0.8 kmh N 4.0 mph6.4 kmh 30.09 in1019.0 mb 0.00 in0.0 mm 0.00 in/hr0.0 mm/hr 0.00 in0.0 mm
07:30 PM 56.8°F13.8°C 46.7°F8.2°C 69% 1.5 mph NNE2.4 kmh NNE 5.4 mph8.7 kmh 30.11 in1019.6 mb 0.00 in0.0 mm 0.00 in/hr0.0 mm/hr 0.00 in0.0 mm
07:45 PM 55.2°F12.9°C 46.4°F8.0°C 72% 1.9 mph E3.1 kmh E 8.9 mph14.3 kmh 30.11 in1019.6 mb 0.00 in0.0 mm 0.00 in/hr0.0 mm/hr 0.00 in0.0 mm
08:00 PM 53.8°F12.1°C 46.0°F7.8°C 75% 0.8 mph S1.3 kmh S 6.5 mph10.5 kmh 30.11 in1019.6 mb 0.00 in0.0 mm 0.00 in/hr0.0 mm/hr 0.00 in0.0 mm
08:15 PM 53.2°F11.8°C 45.9°F7.7°C 76% 0.6 mph E1.0 kmh E 3.1 mph5.0 kmh 30.10 in1019.3 mb 0.00 in0.0 mm 0.00 in/hr0.0 mm/hr 0.00 in0.0 mm
08:30 PM 52.9°F11.6°C 46.2°F7.9°C 78% 0.1 mph SSE0.2 kmh SSE 1.8 mph2.9 kmh 30.10 in1019.3 mb 0.00 in0.0 mm 0.00 in/hr0.0 mm/hr 0.00 in0.0 mm
08:45 PM 52.9°F11.6°C 46.2°F7.9°C 78% 0.2 mph W0.3 kmh W 2.5 mph4.0 kmh 30.10 in1019.3 mb 0.00 in0.0 mm 0.00 in/hr0.0 mm/hr 0.00 in0.0 mm
09:00 PM 52.9°F11.6°C 46.2°F7.9°C 78% 0.4 mph S0.6 kmh S 3.1 mph5.0 kmh 30.10 in1019.3 mb 0.02 in0.5 mm 0.03 in/hr0.8 mm/hr 0.02 in0.5 mm
09:15 PM 53.2°F11.8°C 46.2°F7.9°C 77% 0.2 mph SSW0.3 kmh SSW 4.0 mph6.4 kmh 30.10 in1019.3 mb 0.02 in0.5 mm 0.00 in/hr0.0 mm/hr 0.02 in0.5 mm
09:30 PM 52.9°F11.6°C 45.9°F7.7°C 77% 0.1 mph WNW0.2 kmh WNW 2.2 mph3.5 kmh 30.10 in1019.3 mb 0.02 in0.5 mm 0.00 in/hr0.0 mm/hr 0.02 in0.5 mm
09:45 PM 52.7°F11.5°C 45.7°F7.6°C 77% Calm Calm 0.9 mph1.4 kmh 30.09 in1019.0 mb 0.02 in0.5 mm 0.00 in/hr0.0 mm/hr 0.02 in0.5 mm
10:00 PM 52.7°F11.5°C 45.7°F7.6°C 77% 0.1 mph WNW0.2 kmh WNW 1.6 mph2.6 kmh 30.09 in1019.0 mb 0.00 in0.0 mm 0.00 in/hr0.0 mm/hr 0.02 in0.5 mm
10:15 PM 52.7°F11.5°C 45.7°F7.6°C 77% 0.2 mph WSW0.3 kmh WSW 2.2 mph3.5 kmh 30.09 in1019.0 mb 0.00 in0.0 mm 0.00 in/hr0.0 mm/hr 0.02 in0.5 mm
10:30 PM 52.5°F11.4°C 45.5°F7.5°C 77% 0.2 mph ESE0.3 kmh ESE 3.6 mph5.8 kmh 30.09 in1019.0 mb 0.00 in0.0 mm 0.00 in/hr0.0 mm/hr 0.02 in0.5 mm
10:45 PM 52.7°F11.5°C 45.4°F7.4°C 76% Calm Calm 1.8 mph2.9 kmh 30.09 in1019.0 mb 0.00 in0.0 mm 0.00 in/hr0.0 mm/hr 0.02 in0.5 mm
11:00 PM 52.9°F11.6°C 45.5°F7.5°C 76% Calm Calm -- 30.09 in1019.0 mb 0.00 in0.0 mm 0.00 in/hr0.0 mm/hr 0.02 in0.5 mm
11:15 PM 52.7°F11.5°C 45.4°F7.4°C 76% Calm Calm 1.6 mph2.6 kmh 30.08 in1018.6 mb 0.00 in0.0 mm 0.00 in/hr0.0 mm/hr 0.02 in0.5 mm
11:30 PM 52.9°F11.6°C 45.5°F7.5°C 76% 0.1 mph NE0.2 kmh NE 2.2 mph3.5 kmh 30.08 in1018.6 mb 0.00 in0.0 mm 0.00 in/hr0.0 mm/hr 0.02 in0.5 mm
11:45 PM 53.2°F11.8°C 45.5°F7.5°C 75% 0.1 mph NNW0.2 kmh NNW 2.7 mph4.3 kmh 30.09 in1019.0 mb 0.00 in0.0 mm 0.00 in/hr0.0 mm/hr 0.02 in0.5 mm